createdAt,value
2019-03-21T00:00:15.215Z,17.12
2019-03-21T00:02:45.338Z,15.45
2019-03-21T00:05:15.871Z,13.58
2019-03-21T00:07:46.002Z,14.20
2019-03-21T00:10:17.545Z,14.13
2019-03-21T00:12:47.670Z,15.43
2019-03-21T00:15:30.110Z,15.25
2019-03-21T00:18:02.471Z,14.50
2019-03-21T00:20:32.576Z,14.47
2019-03-21T00:23:04.958Z,13.40
2019-03-21T00:25:35.482Z,16.00
2019-03-21T00:28:05.672Z,14.78
2019-03-21T00:30:37.814Z,13.48
2019-03-21T00:33:08.652Z,16.17
2019-03-21T00:35:38.896Z,12.95
2019-03-21T00:38:09.036Z,11.47
2019-03-21T00:40:44.052Z,11.33
2019-03-21T00:43:15.552Z,12.28
2019-03-21T00:45:46.342Z,13.18
2019-03-21T00:48:17.216Z,11.85
2019-03-21T00:50:47.750Z,11.50
2019-03-21T00:53:19.847Z,14.20
2019-03-21T00:55:50.178Z,18.82
2019-03-21T00:58:20.372Z,15.48
2019-03-21T01:00:51.446Z,15.00
2019-03-21T01:03:21.626Z,17.83
2019-03-21T01:05:52.224Z,15.37
2019-03-21T01:08:22.681Z,15.75
2019-03-21T01:10:53.428Z,15.32
2019-03-21T01:13:24.082Z,14.63
2019-03-21T01:15:54.873Z,14.93
2019-03-21T01:18:25.267Z,16.73
2019-03-21T01:20:55.336Z,16.17
2019-03-21T01:23:27.714Z,17.80
2019-03-21T01:25:59.944Z,18.02
2019-03-21T01:28:30.045Z,14.45
2019-03-21T01:31:00.319Z,16.12
2019-03-21T01:33:34.046Z,16.17
2019-03-21T01:36:04.811Z,17.23
2019-03-21T01:38:34.980Z,27.13
2019-03-21T01:41:05.106Z,15.28
2019-03-21T01:43:35.471Z,18.10
2019-03-21T01:46:07.551Z,20.10
2019-03-21T01:48:38.356Z,19.65
2019-03-21T01:51:08.448Z,18.77
2019-03-21T01:53:38.570Z,15.00
2019-03-21T01:56:09.052Z,14.98
2019-03-21T01:58:39.661Z,15.05
2019-03-21T02:01:09.643Z,16.67
2019-03-21T02:03:39.736Z,16.07
2019-03-21T02:06:11.700Z,15.85
2019-03-21T02:08:43.546Z,17.02
2019-03-21T02:11:15.313Z,18.87
2019-03-21T02:13:45.484Z,20.45
2019-03-21T02:16:16.171Z,16.02
2019-03-21T02:18:46.331Z,19.02
2019-03-21T02:21:17.566Z,18.85
2019-03-21T02:23:47.650Z,15.03
2019-03-21T02:26:17.706Z,14.20
2019-03-21T02:28:47.683Z,14.27
2019-03-21T02:31:18.120Z,19.27
2019-03-21T02:33:48.435Z,14.98
2019-03-21T02:36:18.561Z,17.42
2019-03-21T02:38:49.093Z,17.98
2019-03-21T02:41:19.473Z,17.15
2019-03-21T02:43:49.807Z,19.77
2019-03-21T02:46:19.951Z,18.55
2019-03-21T02:48:50.447Z,16.85
2019-03-21T02:51:22.068Z,18.17
2019-03-21T02:53:52.134Z,17.73
2019-03-21T02:56:22.272Z,18.10
2019-03-21T02:58:52.315Z,19.00
2019-03-21T03:01:24.122Z,18.55
2019-03-21T03:03:54.252Z,22.73
2019-03-21T03:06:24.365Z,17.35
2019-03-21T03:08:54.935Z,18.90
2019-03-21T03:11:25.026Z,20.17
2019-03-21T03:13:55.139Z,18.02
2019-03-21T03:16:25.674Z,15.40
2019-03-21T03:18:56.030Z,18.07
2019-03-21T03:21:26.387Z,19.40
2019-03-21T03:23:56.452Z,19.75
2019-03-21T03:26:27.447Z,18.73
2019-03-21T03:28:57.507Z,17.32
2019-03-21T03:31:28.034Z,18.82
2019-03-21T03:33:58.057Z,15.90
2019-03-21T03:36:28.001Z,19.73
2019-03-21T03:38:58.119Z,19.35
2019-03-21T03:41:28.236Z,21.93
2019-03-21T03:43:58.332Z,20.82
2019-03-21T03:46:28.444Z,19.33
2019-03-21T03:48:58.792Z,18.10
2019-03-21T03:51:29.100Z,22.48
2019-03-21T03:53:59.084Z,21.27
2019-03-21T03:56:29.136Z,19.02
2019-03-21T03:58:59.679Z,19.92
2019-03-21T04:01:29.785Z,21.33
2019-03-21T04:04:00.107Z,19.85
2019-03-21T04:06:30.097Z,18.35
2019-03-21T04:09:00.152Z,16.62
2019-03-21T04:11:31.432Z,16.70
2019-03-21T04:14:01.562Z,18.52
2019-03-21T04:16:31.980Z,14.73
2019-03-21T04:19:02.856Z,20.55
2019-03-21T04:21:33.437Z,19.82
2019-03-21T04:24:03.556Z,16.37
2019-03-21T04:26:33.657Z,21.12
2019-03-21T04:29:03.723Z,17.77
2019-03-21T04:31:34.941Z,19.70
2019-03-21T04:34:05.402Z,22.70
2019-03-21T04:36:36.198Z,21.68
2019-03-21T04:39:07.614Z,17.73
2019-03-21T04:41:37.861Z,23.92
2019-03-21T04:44:09.782Z,20.60
2019-03-21T04:46:41.092Z,21.57
2019-03-21T04:49:12.271Z,21.07
2019-03-21T04:51:43.372Z,29.07
2019-03-21T04:54:14.698Z,22.37
2019-03-21T04:56:46.339Z,21.42
2019-03-21T04:59:16.541Z,20.15
2019-03-21T05:01:47.489Z,18.17
2019-03-21T05:04:18.837Z,21.90
2019-03-21T05:06:50.471Z,23.23
2019-03-21T05:09:21.809Z,24.23
2019-03-21T05:11:53.400Z,22.13
2019-03-21T05:14:24.495Z,23.05
2019-03-21T05:16:54.586Z,24.95
2019-03-21T05:19:25.936Z,22.45
2019-03-21T05:21:56.174Z,22.77
2019-03-21T05:24:27.259Z,20.07
2019-03-21T05:26:59.039Z,31.37
2019-03-21T05:29:30.653Z,28.42
2019-03-21T05:32:03.786Z,28.00
2019-03-21T05:34:35.144Z,26.52
2019-03-21T05:37:07.317Z,23.63
2019-03-21T05:39:38.243Z,24.27
2019-03-21T05:42:14.052Z,19.45
2019-03-21T05:44:44.714Z,23.80
2019-03-21T05:47:15.177Z,22.65
2019-03-21T05:49:46.872Z,28.83
2019-03-21T05:52:18.524Z,25.15
2019-03-21T05:54:49.156Z,25.88
2019-03-21T05:57:20.336Z,21.02
2019-03-21T05:59:51.927Z,23.77
2019-03-21T06:02:23.459Z,20.37
2019-03-21T06:04:54.002Z,18.97
2019-03-21T06:07:51.177Z,19.77
2019-03-21T06:10:22.513Z,33.18
2019-03-21T06:12:53.921Z,24.83
2019-03-21T06:15:27.564Z,20.45
2019-03-21T06:18:19.653Z,26.40
2019-03-21T06:20:58.813Z,24.43
2019-03-21T06:23:53.730Z,24.00
2019-03-21T06:26:50.428Z,27.73
2019-03-21T06:29:22.160Z,21.27
2019-03-21T06:31:53.301Z,25.68
2019-03-21T06:34:24.486Z,24.45
2019-03-21T06:36:55.864Z,24.92
2019-03-21T06:39:27.409Z,21.52
2019-03-21T06:41:58.515Z,27.02
2019-03-21T06:44:30.125Z,27.27
2019-03-21T06:47:01.705Z,23.57
2019-03-21T06:49:32.910Z,21.07
2019-03-21T06:52:04.120Z,25.23
2019-03-21T06:54:55.118Z,22.90
2019-03-21T06:57:26.696Z,22.90
2019-03-21T06:59:57.803Z,24.72
2019-03-21T07:02:28.926Z,26.57
2019-03-21T07:05:00.362Z,27.80
2019-03-21T07:07:30.545Z,22.17
2019-03-21T07:10:02.425Z,25.72
2019-03-21T07:12:35.320Z,23.18
2019-03-21T07:15:07.765Z,28.23
2019-03-21T07:17:41.898Z,28.12
2019-03-21T07:20:13.589Z,27.80
2019-03-21T07:22:45.623Z,32.17
2019-03-21T07:25:18.541Z,30.60
2019-03-21T07:27:53.378Z,30.53
2019-03-21T07:30:26.936Z,45.40
2019-03-21T07:32:58.345Z,47.27
2019-03-21T07:35:29.531Z,47.45
2019-03-21T07:38:01.116Z,43.92
2019-03-21T07:40:32.313Z,35.92
2019-03-21T07:43:03.721Z,36.48
2019-03-21T07:45:35.196Z,42.87
2019-03-21T07:48:06.786Z,35.98
2019-03-21T07:50:38.246Z,48.60
2019-03-21T07:53:09.331Z,38.85
2019-03-21T07:55:41.670Z,41.70
2019-03-21T07:58:13.212Z,42.78
2019-03-21T08:00:44.292Z,44.17
2019-03-21T08:03:15.606Z,62.43
2019-03-21T08:05:48.251Z,44.60
2019-03-21T08:08:19.671Z,41.58
2019-03-21T08:10:51.209Z,35.23
2019-03-21T08:13:22.367Z,35.63
2019-03-21T08:15:53.725Z,42.85
2019-03-21T08:18:24.944Z,35.50
2019-03-21T08:20:59.782Z,39.45
2019-03-21T08:23:28.994Z,39.37
2019-03-21T08:26:00.131Z,43.38
2019-03-21T08:28:31.214Z,45.40
2019-03-21T08:31:26.946Z,42.23
2019-03-21T08:33:59.803Z,36.50
2019-03-21T08:36:31.650Z,30.50
2019-03-21T08:39:02.666Z,31.10
2019-03-21T08:41:33.786Z,29.98
2019-03-21T08:44:05.104Z,32.88
2019-03-21T08:46:36.598Z,26.73
2019-03-21T08:49:07.828Z,22.93
2019-03-21T08:51:38.916Z,18.15
2019-03-21T08:54:09.961Z,19.33
2019-03-21T08:56:41.100Z,17.70
2019-03-21T08:59:12.844Z,17.67
2019-03-21T09:01:44.622Z,18.85
2019-03-21T09:04:16.074Z,23.62
2019-03-21T09:06:47.246Z,17.62
2019-03-21T09:09:18.412Z,23.27
2019-03-21T09:11:51.307Z,17.98
2019-03-21T09:14:23.561Z,19.12
2019-03-21T09:16:54.672Z,23.07
2019-03-21T09:19:25.824Z,20.52
2019-03-21T09:21:56.900Z,18.35
2019-03-21T09:24:35.467Z,18.90
2019-03-21T09:27:11.810Z,20.37
2019-03-21T09:29:53.212Z,16.07
2019-03-21T09:32:17.321Z,21.17
2019-03-21T09:34:48.719Z,19.87
2019-03-21T09:37:21.827Z,19.52
2019-03-21T09:39:53.824Z,20.85
2019-03-21T09:42:27.416Z,18.37
2019-03-21T09:44:59.242Z,18.32
2019-03-21T09:47:30.496Z,18.55
2019-03-21T09:50:01.896Z,18.37
2019-03-21T09:52:33.135Z,16.55
2019-03-21T09:55:04.662Z,18.32
2019-03-21T09:57:36.701Z,18.30
2019-03-21T10:00:09.125Z,21.10
2019-03-21T10:02:42.749Z,21.45
2019-03-21T10:05:14.284Z,19.73
2019-03-21T10:07:46.451Z,19.95
2019-03-21T10:10:27.032Z,21.45
2019-03-21T10:13:00.639Z,25.57
2019-03-21T10:15:32.217Z,21.97
2019-03-21T10:18:05.132Z,18.07
2019-03-21T10:20:37.125Z,20.05
2019-03-21T10:23:11.127Z,22.02
2019-03-21T10:25:42.361Z,19.40
2019-03-21T10:28:16.687Z,19.73
2019-03-21T10:30:48.880Z,19.07
2019-03-21T10:33:19.930Z,19.23
2019-03-21T10:35:50.131Z,17.00
2019-03-21T10:38:20.176Z,19.35
2019-03-21T10:40:50.377Z,22.27
2019-03-21T10:43:20.532Z,25.27
2019-03-21T10:45:50.624Z,18.83
2019-03-21T10:48:23.344Z,21.68
2019-03-21T10:50:52.531Z,17.02
2019-03-21T10:53:26.076Z,21.77
2019-03-21T10:55:56.215Z,20.80
2019-03-21T10:58:26.381Z,19.62
2019-03-21T11:00:58.344Z,21.93
2019-03-21T11:03:29.693Z,23.00
2019-03-21T11:05:59.815Z,16.60
2019-03-21T11:08:31.028Z,14.87
2019-03-21T11:11:01.563Z,18.15
2019-03-21T11:13:31.584Z,18.37
2019-03-21T11:16:01.712Z,17.12
2019-03-21T11:18:36.399Z,19.50
2019-03-21T11:21:04.245Z,20.25
2019-03-21T11:23:34.778Z,17.42
2019-03-21T11:26:05.721Z,25.73
2019-03-21T11:28:36.267Z,21.25
2019-03-21T11:31:06.780Z,19.02
2019-03-21T11:33:37.409Z,17.62
2019-03-21T11:36:09.390Z,15.88
2019-03-21T11:38:39.521Z,17.73
2019-03-21T11:41:09.643Z,27.13
2019-03-21T11:43:40.598Z,15.80
2019-03-21T11:46:10.664Z,15.45
2019-03-21T11:48:43.313Z,15.72
2019-03-21T11:51:13.363Z,14.83
2019-03-21T11:53:43.939Z,16.70
2019-03-21T11:56:14.507Z,16.97
2019-03-21T11:58:44.512Z,17.50
2019-03-21T12:01:14.707Z,18.00
2019-03-21T12:03:44.912Z,14.90
2019-03-21T12:06:15.771Z,13.75
2019-03-21T12:08:45.888Z,29.98
2019-03-21T12:11:16.025Z,15.35
2019-03-21T12:13:46.144Z,20.95
2019-03-21T12:16:16.264Z,16.70
2019-03-21T12:18:46.992Z,17.40
2019-03-21T12:21:17.054Z,17.55
2019-03-21T12:23:47.270Z,21.40
2019-03-21T12:26:18.044Z,13.05
2019-03-21T12:28:48.517Z,13.32
2019-03-21T12:31:18.869Z,13.62
2019-03-21T12:33:49.904Z,13.75
2019-03-21T12:36:21.350Z,14.67
2019-03-21T12:38:52.062Z,21.23
2019-03-21T12:41:22.424Z,18.40
2019-03-21T12:43:52.563Z,24.35
2019-03-21T12:46:25.130Z,19.42
2019-03-21T12:48:56.543Z,21.70
2019-03-21T12:51:26.695Z,16.40
2019-03-21T12:53:56.997Z,19.25
2019-03-21T12:56:27.087Z,14.60
2019-03-21T12:58:57.500Z,17.42
2019-03-21T13:01:27.909Z,17.80
2019-03-21T13:03:58.769Z,15.80
2019-03-21T13:06:29.180Z,17.50
2019-03-21T13:08:59.351Z,18.60
2019-03-21T13:11:29.469Z,20.57
2019-03-21T13:14:01.340Z,15.83
2019-03-21T13:16:31.453Z,17.33
2019-03-21T13:19:02.022Z,18.07
2019-03-21T13:21:32.112Z,16.52
2019-03-21T13:24:02.237Z,14.43
2019-03-21T13:26:32.399Z,15.18
2019-03-21T13:29:07.487Z,14.93
2019-03-21T13:31:39.279Z,16.97
2019-03-21T13:34:09.424Z,14.15
2019-03-21T13:36:39.508Z,13.00
2019-03-21T13:39:09.795Z,15.95
2019-03-21T13:41:40.062Z,14.20
2019-03-21T13:44:10.579Z,18.67
2019-03-21T13:46:41.053Z,13.75
2019-03-21T13:49:11.171Z,24.23
2019-03-21T13:51:41.342Z,10.20
2019-03-21T13:54:11.492Z,10.72
2019-03-21T13:56:42.438Z,11.20
2019-03-21T13:59:12.967Z,12.60
2019-03-21T14:01:43.083Z,17.57
2019-03-21T14:04:13.184Z,10.48
2019-03-21T14:06:43.253Z,13.63
2019-03-21T14:09:13.424Z,10.55
2019-03-21T14:11:43.898Z,11.18
2019-03-21T14:14:14.077Z,14.20
2019-03-21T14:16:44.672Z,12.00
2019-03-21T14:19:15.157Z,13.93
2019-03-21T14:21:45.900Z,13.32
2019-03-21T14:24:16.108Z,12.45
2019-03-21T14:26:46.104Z,11.85
2019-03-21T14:29:16.649Z,12.98
2019-03-21T14:31:46.786Z,13.78
2019-03-21T14:34:16.893Z,13.35
2019-03-21T14:36:47.135Z,15.25
2019-03-21T14:39:17.371Z,15.00
2019-03-21T14:41:47.892Z,12.07
2019-03-21T14:44:19.473Z,13.13
2019-03-21T14:46:49.623Z,13.45
2019-03-21T14:49:19.687Z,11.40
2019-03-21T14:51:50.623Z,16.05
2019-03-21T14:54:20.857Z,16.05
2019-03-21T14:56:50.917Z,11.78
2019-03-21T14:59:21.090Z,13.50
2019-03-21T15:01:51.629Z,13.93
2019-03-21T15:04:21.690Z,16.07
2019-03-21T15:06:51.869Z,19.03
2019-03-21T15:09:22.389Z,16.62
2019-03-21T15:11:52.643Z,12.23
2019-03-21T15:14:22.645Z,14.50
2019-03-21T15:17:00.470Z,13.62
2019-03-21T15:19:36.021Z,18.30
2019-03-21T15:22:07.977Z,13.13
2019-03-21T15:24:38.307Z,21.00
2019-03-21T15:27:08.389Z,15.93
2019-03-21T15:29:39.145Z,16.85
2019-03-21T15:32:09.244Z,15.78
2019-03-21T15:34:39.477Z,20.50
2019-03-21T15:37:09.897Z,20.25
2019-03-21T15:39:39.967Z,8.30
2019-03-21T15:42:10.145Z,11.03
2019-03-21T15:44:40.264Z,11.88
2019-03-21T15:47:10.797Z,13.55
2019-03-21T15:49:41.130Z,15.95
2019-03-21T15:52:11.299Z,16.02
2019-03-21T15:54:41.424Z,11.65
2019-03-21T15:57:14.967Z,14.85
2019-03-21T15:59:45.543Z,18.60
2019-03-21T16:02:15.566Z,11.45
2019-03-21T16:04:45.789Z,16.23
2019-03-21T16:07:15.872Z,14.43
2019-03-21T16:09:45.984Z,13.93
2019-03-21T16:12:16.523Z,14.13
2019-03-21T16:14:49.157Z,12.60
2019-03-21T16:17:18.234Z,15.18
2019-03-21T16:19:48.383Z,18.20
2019-03-21T16:22:18.895Z,14.05
2019-03-21T16:24:49.315Z,12.53
2019-03-21T16:27:19.814Z,17.73
2019-03-21T16:29:49.940Z,16.87
2019-03-21T16:32:20.048Z,13.05
2019-03-21T16:34:50.168Z,14.68
2019-03-21T16:37:25.358Z,14.38
2019-03-21T16:39:55.738Z,17.02
2019-03-21T16:42:26.481Z,18.35
2019-03-21T16:44:57.485Z,13.13
2019-03-21T16:47:28.358Z,17.67
2019-03-21T16:49:58.673Z,14.07
2019-03-21T16:52:29.154Z,15.03
2019-03-21T16:54:59.774Z,21.37
2019-03-21T16:57:29.893Z,17.00
2019-03-21T17:00:00.049Z,13.80
2019-03-21T17:02:30.513Z,12.60
2019-03-21T17:05:01.036Z,14.95
2019-03-21T17:07:31.157Z,15.05
2019-03-21T17:10:01.617Z,13.48
2019-03-21T17:12:31.705Z,16.07
2019-03-21T17:15:01.825Z,17.65
2019-03-21T17:17:32.344Z,15.23
2019-03-21T17:20:03.890Z,14.47
2019-03-21T17:22:44.874Z,23.05
2019-03-21T17:25:15.156Z,19.23
2019-03-21T17:27:45.254Z,19.92
2019-03-21T17:30:15.430Z,28.00
2019-03-21T17:32:46.524Z,17.20
2019-03-21T17:35:17.263Z,22.57
2019-03-21T17:37:47.436Z,16.37
2019-03-21T17:40:17.495Z,16.73
2019-03-21T17:42:48.099Z,19.67
2019-03-21T17:45:19.317Z,16.40
2019-03-21T17:47:49.569Z,18.17
2019-03-21T17:50:19.652Z,13.88
2019-03-21T17:52:49.947Z,19.52
2019-03-21T17:55:20.177Z,18.15
2019-03-21T17:57:51.996Z,17.32
2019-03-21T18:00:24.928Z,17.98
2019-03-21T18:02:59.955Z,19.65
2019-03-21T18:05:30.578Z,33.92
2019-03-21T18:08:00.808Z,34.85
2019-03-21T18:10:31.434Z,25.23
2019-03-21T18:13:01.712Z,30.23
2019-03-21T18:15:31.830Z,31.68
2019-03-21T18:18:02.453Z,21.23
2019-03-21T18:20:32.871Z,19.53
2019-03-21T18:23:03.397Z,20.27
2019-03-21T18:25:34.392Z,19.27
2019-03-21T18:28:04.613Z,25.57
2019-03-21T18:30:34.653Z,23.15
2019-03-21T18:33:05.020Z,23.80
2019-03-21T18:35:35.616Z,18.80
2019-03-21T18:38:06.193Z,14.98
2019-03-21T18:40:36.688Z,15.58
2019-03-21T18:43:07.223Z,17.82
2019-03-21T18:45:37.275Z,19.70
2019-03-21T18:48:07.651Z,20.32
2019-03-21T18:50:38.403Z,15.90
2019-03-21T18:53:08.452Z,15.18
2019-03-21T18:55:38.931Z,15.55
2019-03-21T18:58:09.083Z,17.42
2019-03-21T19:00:39.586Z,23.18
2019-03-21T19:03:09.613Z,19.10
2019-03-21T19:05:39.759Z,19.60
2019-03-21T19:08:16.986Z,16.52
2019-03-21T19:10:47.938Z,15.05
2019-03-21T19:13:18.083Z,19.57
2019-03-21T19:15:48.620Z,21.52
2019-03-21T19:18:21.656Z,20.95
2019-03-21T19:20:54.336Z,19.33
2019-03-21T19:23:31.365Z,18.45
2019-03-21T19:26:03.165Z,17.95
2019-03-21T19:28:33.717Z,18.00
2019-03-21T19:31:04.191Z,19.77
2019-03-21T19:33:34.614Z,16.27
2019-03-21T19:36:09.514Z,19.13
2019-03-21T19:38:39.819Z,24.90
2019-03-21T19:41:13.132Z,26.50
2019-03-21T19:43:49.548Z,30.17
2019-03-21T19:46:26.680Z,30.52
2019-03-21T19:48:58.720Z,21.93
2019-03-21T19:51:30.899Z,29.92
2019-03-21T19:54:04.226Z,24.98
2019-03-21T19:56:35.379Z,21.48
2019-03-21T19:59:06.249Z,19.45
2019-03-21T20:01:36.754Z,26.75
2019-03-21T20:04:08.275Z,27.27
2019-03-21T20:06:50.989Z,33.98
2019-03-21T20:09:21.004Z,30.55
2019-03-21T20:11:51.193Z,23.05
2019-03-21T20:14:21.525Z,27.87
2019-03-21T20:16:51.955Z,42.78
2019-03-21T20:19:23.342Z,20.65
2019-03-21T20:21:53.512Z,32.30
2019-03-21T20:24:23.673Z,23.70
2019-03-21T20:26:53.746Z,21.43
2019-03-21T20:29:24.922Z,30.23
2019-03-21T20:31:55.029Z,22.43
2019-03-21T20:34:25.345Z,28.37
2019-03-21T20:36:57.925Z,20.52
2019-03-21T20:39:28.013Z,26.95
2019-03-21T20:41:58.065Z,29.23
2019-03-21T20:44:28.650Z,21.50
2019-03-21T20:46:58.737Z,26.33
2019-03-21T20:49:30.556Z,28.95
2019-03-21T20:52:00.615Z,28.02
2019-03-21T20:54:31.553Z,36.93
2019-03-21T20:57:28.609Z,21.40
2019-03-21T21:00:02.379Z,25.10
2019-03-21T21:02:33.272Z,24.15
2019-03-21T21:05:03.356Z,20.27
2019-03-21T21:07:36.555Z,20.02
2019-03-21T21:10:07.900Z,18.82
2019-03-21T21:12:38.017Z,18.50
2019-03-21T21:15:08.352Z,20.10
2019-03-21T21:17:38.495Z,19.33
2019-03-21T21:20:09.618Z,16.27
2019-03-21T21:22:39.747Z,23.22
2019-03-21T21:25:11.082Z,18.65
2019-03-21T21:27:49.300Z,19.53
2019-03-21T21:30:17.617Z,19.98
2019-03-21T21:32:48.151Z,15.98
2019-03-21T21:35:18.225Z,20.65
2019-03-21T21:37:48.467Z,17.40
2019-03-21T21:40:18.545Z,19.10
2019-03-21T21:42:48.952Z,18.60
2019-03-21T21:45:19.236Z,21.33
2019-03-21T21:47:49.257Z,23.47
2019-03-21T21:50:19.451Z,37.43
2019-03-21T21:52:49.588Z,19.80
2019-03-21T21:55:19.608Z,17.93
2019-03-21T21:57:50.081Z,18.12
2019-03-21T22:00:20.510Z,15.78
2019-03-21T22:02:50.789Z,18.85
2019-03-21T22:05:21.626Z,23.10
2019-03-21T22:07:52.680Z,18.85
2019-03-21T22:10:22.612Z,18.07
2019-03-21T22:12:52.664Z,18.60
2019-03-21T22:15:22.857Z,17.17
2019-03-21T22:17:53.230Z,16.12
2019-03-21T22:20:23.624Z,16.25
2019-03-21T22:22:53.787Z,17.35
2019-03-21T22:25:23.859Z,18.90
2019-03-21T22:27:54.216Z,17.55
2019-03-21T22:30:24.708Z,17.37
2019-03-21T22:32:55.628Z,19.62
2019-03-21T22:35:25.746Z,14.85
2019-03-21T22:37:56.806Z,17.37
2019-03-21T22:40:28.777Z,18.40
2019-03-21T22:42:58.960Z,16.62
2019-03-21T22:45:29.107Z,20.20
2019-03-21T22:48:01.489Z,17.27
2019-03-21T22:50:32.606Z,18.30
2019-03-21T22:53:02.819Z,16.62
2019-03-21T22:55:35.459Z,20.45
2019-03-21T22:58:07.215Z,14.55
2019-03-21T23:00:42.096Z,20.60
2019-03-21T23:03:12.646Z,17.17
2019-03-21T23:05:43.691Z,19.25
2019-03-21T23:08:13.711Z,16.20
2019-03-21T23:10:45.095Z,20.05
2019-03-21T23:13:15.275Z,15.93
2019-03-21T23:15:45.604Z,20.85
2019-03-21T23:18:15.770Z,21.10
2019-03-21T23:20:45.942Z,17.25
2019-03-21T23:23:15.862Z,16.23
2019-03-21T23:25:46.055Z,24.30
2019-03-21T23:28:16.912Z,16.20
2019-03-21T23:30:47.264Z,17.90
2019-03-21T23:33:18.317Z,17.23
2019-03-21T23:35:49.045Z,17.92
2019-03-21T23:38:19.079Z,16.25
2019-03-21T23:40:49.282Z,16.67
2019-03-21T23:43:22.446Z,14.15
2019-03-21T23:45:52.574Z,17.92
2019-03-21T23:48:25.390Z,13.80
2019-03-21T23:50:56.054Z,13.78
2019-03-21T23:53:26.338Z,14.63
2019-03-21T23:55:57.476Z,17.27
2019-03-21T23:58:27.888Z,15.95
